sensor_id;sensor_type;location;lat;lon;timestamp;P1;durP1;ratioP1;P2;durP2;ratioP2
5149;SDS011;2593;52.466;13.436;2022-10-31T00:02:24;69.37;;;37.30;;
5149;SDS011;2593;52.466;13.436;2022-10-31T00:04:50;75.57;;;35.30;;
5149;SDS011;2593;52.466;13.436;2022-10-31T00:07:15;62.80;;;36.20;;
5149;SDS011;2593;52.466;13.436;2022-10-31T00:09:41;82.13;;;36.70;;
5149;SDS011;2593;52.466;13.436;2022-10-31T00:12:06;64.03;;;36.40;;
5149;SDS011;2593;52.466;13.436;2022-10-31T00:14:32;64.40;;;35.57;;
5149;SDS011;2593;52.466;13.436;2022-10-31T00:16:58;65.30;;;35.13;;
5149;SDS011;2593;52.466;13.436;2022-10-31T00:19:23;72.17;;;36.50;;
5149;SDS011;2593;52.466;13.436;2022-10-31T00:21:51;63.50;;;33.60;;
5149;SDS011;2593;52.466;13.436;2022-10-31T00:24:16;64.27;;;33.30;;
5149;SDS011;2593;52.466;13.436;2022-10-31T00:26:42;62.87;;;33.30;;
5149;SDS011;2593;52.466;13.436;2022-10-31T00:29:07;61.20;;;32.93;;
5149;SDS011;2593;52.466;13.436;2022-10-31T00:31:33;57.90;;;32.70;;
5149;SDS011;2593;52.466;13.436;2022-10-31T00:33:58;47.73;;;28.80;;
5149;SDS011;2593;52.466;13.436;2022-10-31T00:36:24;56.03;;;29.60;;
5149;SDS011;2593;52.466;13.436;2022-10-31T00:38:50;70.23;;;28.47;;
5149;SDS011;2593;52.466;13.436;2022-10-31T00:41:16;47.20;;;27.27;;
5149;SDS011;2593;52.466;13.436;2022-10-31T00:43:42;52.20;;;28.83;;
5149;SDS011;2593;52.466;13.436;2022-10-31T00:46:09;51.80;;;27.53;;
5149;SDS011;2593;52.466;13.436;2022-10-31T00:48:35;41.97;;;25.60;;
5149;SDS011;2593;52.466;13.436;2022-10-31T00:51:00;53.30;;;27.13;;
5149;SDS011;2593;52.466;13.436;2022-10-31T00:53:26;46.03;;;25.03;;
5149;SDS011;2593;52.466;13.436;2022-10-31T00:55:51;44.00;;;24.80;;
5149;SDS011;2593;52.466;13.436;2022-10-31T00:58:17;45.07;;;22.13;;
5149;SDS011;2593;52.466;13.436;2022-10-31T01:00:43;37.40;;;21.27;;
5149;SDS011;2593;52.466;13.436;2022-10-31T01:03:08;42.40;;;22.07;;
5149;SDS011;2593;52.466;13.436;2022-10-31T01:05:34;40.10;;;21.10;;
5149;SDS011;2593;52.466;13.436;2022-10-31T01:07:59;40.33;;;21.37;;
5149;SDS011;2593;52.466;13.436;2022-10-31T01:10:25;38.30;;;19.83;;
5149;SDS011;2593;52.466;13.436;2022-10-31T01:12:51;34.87;;;18.40;;
5149;SDS011;2593;52.466;13.436;2022-10-31T01:15:18;42.53;;;19.63;;
5149;SDS011;2593;52.466;13.436;2022-10-31T01:17:45;35.73;;;18.93;;
5149;SDS011;2593;52.466;13.436;2022-10-31T01:20:12;38.03;;;19.50;;
5149;SDS011;2593;52.466;13.436;2022-10-31T01:22:39;35.73;;;18.73;;
5149;SDS011;2593;52.466;13.436;2022-10-31T01:25:04;35.20;;;20.23;;
5149;SDS011;2593;52.466;13.436;2022-10-31T01:27:31;33.00;;;18.77;;
5149;SDS011;2593;52.466;13.436;2022-10-31T01:29:57;56.43;;;20.10;;
5149;SDS011;2593;52.466;13.436;2022-10-31T01:32:22;32.27;;;16.90;;
5149;SDS011;2593;52.466;13.436;2022-10-31T01:34:48;33.63;;;18.43;;
5149;SDS011;2593;52.466;13.436;2022-10-31T01:37:13;34.83;;;17.30;;
5149;SDS011;2593;52.466;13.436;2022-10-31T01:39:39;32.07;;;17.03;;
5149;SDS011;2593;52.466;13.436;2022-10-31T01:42:05;30.50;;;16.93;;
5149;SDS011;2593;52.466;13.436;2022-10-31T01:47:06;29.80;;;17.53;;
5149;SDS011;2593;52.466;13.436;2022-10-31T01:49:38;25.00;;;16.77;;
5149;SDS011;2593;52.466;13.436;2022-10-31T01:52:11;36.77;;;17.50;;
5149;SDS011;2593;52.466;13.436;2022-10-31T01:54:39;35.83;;;17.60;;
5149;SDS011;2593;52.466;13.436;2022-10-31T01:57:11;34.70;;;16.40;;
5149;SDS011;2593;52.466;13.436;2022-10-31T01:59:40;38.07;;;16.63;;
5149;SDS011;2593;52.466;13.436;2022-10-31T02:02:12;27.33;;;15.90;;
5149;SDS011;2593;52.466;13.436;2022-10-31T02:04:40;32.60;;;16.43;;
5149;SDS011;2593;52.466;13.436;2022-10-31T02:07:07;30.50;;;16.87;;
5149;SDS011;2593;52.466;13.436;2022-10-31T02:09:39;34.07;;;16.50;;
5149;SDS011;2593;52.466;13.436;2022-10-31T02:12:05;33.50;;;16.27;;
5149;SDS011;2593;52.466;13.436;2022-10-31T02:14:34;40.67;;;17.50;;
5149;SDS011;2593;52.466;13.436;2022-10-31T02:17:01;31.20;;;15.03;;
5149;SDS011;2593;52.466;13.436;2022-10-31T02:22:07;28.80;;;16.17;;
5149;SDS011;2593;52.466;13.436;2022-10-31T02:33:53;28.30;;;16.07;;
5149;SDS011;2593;52.466;13.436;2022-10-31T02:36:42;28.47;;;15.93;;
5149;SDS011;2593;52.466;13.436;2022-10-31T02:44:44;35.60;;;18.50;;
5149;SDS011;2593;52.466;13.436;2022-10-31T02:47:16;41.57;;;17.70;;
5149;SDS011;2593;52.466;13.436;2022-10-31T02:50:26;22.60;;;16.20;;
5149;SDS011;2593;52.466;13.436;2022-10-31T02:52:43;27.03;;;17.20;;
5149;SDS011;2593;52.466;13.436;2022-10-31T02:57:49;31.77;;;15.80;;
5149;SDS011;2593;52.466;13.436;2022-10-31T03:00:22;27.87;;;17.00;;
5149;SDS011;2593;52.466;13.436;2022-10-31T03:03:06;30.10;;;17.20;;
5149;SDS011;2593;52.466;13.436;2022-10-31T03:05:48;38.97;;;16.67;;
5149;SDS011;2593;52.466;13.436;2022-10-31T03:11:21;30.87;;;16.07;;
5149;SDS011;2593;52.466;13.436;2022-10-31T03:14:08;26.40;;;16.10;;
5149;SDS011;2593;52.466;13.436;2022-10-31T03:19:09;33.20;;;15.60;;
5149;SDS011;2593;52.466;13.436;2022-10-31T03:21:44;27.47;;;14.70;;
5149;SDS011;2593;52.466;13.436;2022-10-31T03:24:14;29.23;;;15.47;;
5149;SDS011;2593;52.466;13.436;2022-10-31T03:26:41;39.23;;;16.83;;
5149;SDS011;2593;52.466;13.436;2022-10-31T03:29:14;33.80;;;16.47;;
5149;SDS011;2593;52.466;13.436;2022-10-31T03:32:00;29.57;;;17.50;;
5149;SDS011;2593;52.466;13.436;2022-10-31T03:34:30;23.50;;;14.90;;
5149;SDS011;2593;52.466;13.436;2022-10-31T03:36:57;39.73;;;17.30;;
5149;SDS011;2593;52.466;13.436;2022-10-31T03:39:26;29.73;;;16.57;;
5149;SDS011;2593;52.466;13.436;2022-10-31T03:41:53;24.77;;;15.67;;
5149;SDS011;2593;52.466;13.436;2022-10-31T03:44:30;31.70;;;15.97;;
5149;SDS011;2593;52.466;13.436;2022-10-31T03:46:58;32.13;;;15.97;;
5149;SDS011;2593;52.466;13.436;2022-10-31T03:49:24;30.63;;;16.50;;
5149;SDS011;2593;52.466;13.436;2022-10-31T03:51:55;32.00;;;15.93;;
5149;SDS011;2593;52.466;13.436;2022-10-31T03:54:56;40.23;;;16.80;;
5149;SDS011;2593;52.466;13.436;2022-10-31T03:57:41;23.33;;;15.77;;
5149;SDS011;2593;52.466;13.436;2022-10-31T04:00:27;26.27;;;15.57;;
5149;SDS011;2593;52.466;13.436;2022-10-31T04:03:09;30.90;;;15.17;;
5149;SDS011;2593;52.466;13.436;2022-10-31T04:05:40;47.33;;;16.33;;
5149;SDS011;2593;52.466;13.436;2022-10-31T04:08:09;24.80;;;14.07;;
5149;SDS011;2593;52.466;13.436;2022-10-31T04:10:39;39.53;;;15.60;;
5149;SDS011;2593;52.466;13.436;2022-10-31T04:13:07;35.47;;;15.53;;
5149;SDS011;2593;52.466;13.436;2022-10-31T04:15:37;31.53;;;16.57;;
5149;SDS011;2593;52.466;13.436;2022-10-31T04:18:04;40.33;;;15.17;;
5149;SDS011;2593;52.466;13.436;2022-10-31T04:20:34;26.07;;;14.80;;
5149;SDS011;2593;52.466;13.436;2022-10-31T04:23:02;39.37;;;15.07;;
5149;SDS011;2593;52.466;13.436;2022-10-31T04:25:30;26.07;;;15.30;;
5149;SDS011;2593;52.466;13.436;2022-10-31T04:27:56;46.77;;;15.57;;
5149;SDS011;2593;52.466;13.436;2022-10-31T04:30:21;33.63;;;15.63;;
5149;SDS011;2593;52.466;13.436;2022-10-31T04:32:47;26.77;;;15.10;;
5149;SDS011;2593;52.466;13.436;2022-10-31T04:35:12;37.87;;;16.20;;
5149;SDS011;2593;52.466;13.436;2022-10-31T04:37:38;34.60;;;16.43;;
5149;SDS011;2593;52.466;13.436;2022-10-31T04:40:04;28.83;;;15.30;;
5149;SDS011;2593;52.466;13.436;2022-10-31T04:42:30;37.80;;;16.33;;
5149;SDS011;2593;52.466;13.436;2022-10-31T04:44:55;27.07;;;15.63;;
5149;SDS011;2593;52.466;13.436;2022-10-31T04:47:21;27.30;;;16.33;;
5149;SDS011;2593;52.466;13.436;2022-10-31T04:49:47;34.30;;;16.77;;
5149;SDS011;2593;52.466;13.436;2022-10-31T04:52:12;29.33;;;16.07;;
5149;SDS011;2593;52.466;13.436;2022-10-31T04:54:38;28.07;;;15.03;;
5149;SDS011;2593;52.466;13.436;2022-10-31T04:57:04;33.13;;;16.90;;
5149;SDS011;2593;52.466;13.436;2022-10-31T04:59:29;36.90;;;17.20;;
5149;SDS011;2593;52.466;13.436;2022-10-31T05:01:55;32.73;;;15.07;;
5149;SDS011;2593;52.466;13.436;2022-10-31T05:04:20;32.87;;;17.57;;
5149;SDS011;2593;52.466;13.436;2022-10-31T05:06:46;36.83;;;16.70;;
5149;SDS011;2593;52.466;13.436;2022-10-31T05:09:12;38.43;;;16.67;;
5149;SDS011;2593;52.466;13.436;2022-10-31T05:11:37;32.53;;;16.70;;
5149;SDS011;2593;52.466;13.436;2022-10-31T05:14:03;27.50;;;15.17;;
5149;SDS011;2593;52.466;13.436;2022-10-31T05:16:28;31.13;;;14.80;;
5149;SDS011;2593;52.466;13.436;2022-10-31T05:18:54;28.87;;;17.40;;
5149;SDS011;2593;52.466;13.436;2022-10-31T05:21:20;34.27;;;15.47;;
5149;SDS011;2593;52.466;13.436;2022-10-31T05:23:45;39.53;;;17.43;;
5149;SDS011;2593;52.466;13.436;2022-10-31T05:26:11;35.77;;;18.00;;
5149;SDS011;2593;52.466;13.436;2022-10-31T05:28:36;35.53;;;18.30;;
5149;SDS011;2593;52.466;13.436;2022-10-31T05:31:02;45.80;;;18.27;;
5149;SDS011;2593;52.466;13.436;2022-10-31T05:33:28;36.77;;;17.10;;
5149;SDS011;2593;52.466;13.436;2022-10-31T05:35:53;30.60;;;17.33;;
5149;SDS011;2593;52.466;13.436;2022-10-31T05:38:19;46.17;;;18.40;;
5149;SDS011;2593;52.466;13.436;2022-10-31T05:40:44;36.33;;;17.00;;
5149;SDS011;2593;52.466;13.436;2022-10-31T05:43:10;30.63;;;15.53;;
5149;SDS011;2593;52.466;13.436;2022-10-31T05:45:35;48.70;;;17.90;;
5149;SDS011;2593;52.466;13.436;2022-10-31T05:48:01;32.40;;;16.83;;
5149;SDS011;2593;52.466;13.436;2022-10-31T05:50:28;30.20;;;15.57;;
5149;SDS011;2593;52.466;13.436;2022-10-31T05:52:58;33.60;;;16.37;;
5149;SDS011;2593;52.466;13.436;2022-10-31T05:55:26;37.17;;;16.00;;
5149;SDS011;2593;52.466;13.436;2022-10-31T05:57:52;26.20;;;15.57;;
5149;SDS011;2593;52.466;13.436;2022-10-31T06:00:19;28.50;;;16.90;;
5149;SDS011;2593;52.466;13.436;2022-10-31T06:02:45;36.57;;;16.63;;
5149;SDS011;2593;52.466;13.436;2022-10-31T06:05:11;33.97;;;16.57;;
5149;SDS011;2593;52.466;13.436;2022-10-31T06:07:37;28.43;;;16.53;;
5149;SDS011;2593;52.466;13.436;2022-10-31T06:10:03;35.80;;;16.60;;
5149;SDS011;2593;52.466;13.436;2022-10-31T06:12:30;25.07;;;15.63;;
5149;SDS011;2593;52.466;13.436;2022-10-31T06:14:56;27.73;;;16.57;;
5149;SDS011;2593;52.466;13.436;2022-10-31T06:17:21;27.37;;;16.10;;
5149;SDS011;2593;52.466;13.436;2022-10-31T06:19:47;30.23;;;15.40;;
5149;SDS011;2593;52.466;13.436;2022-10-31T06:22:13;31.73;;;16.13;;
5149;SDS011;2593;52.466;13.436;2022-10-31T06:24:39;42.53;;;16.20;;
5149;SDS011;2593;52.466;13.436;2022-10-31T06:27:04;28.13;;;15.80;;
5149;SDS011;2593;52.466;13.436;2022-10-31T06:29:30;30.13;;;16.23;;
5149;SDS011;2593;52.466;13.436;2022-10-31T06:31:56;28.00;;;15.70;;
5149;SDS011;2593;52.466;13.436;2022-10-31T06:34:21;36.60;;;17.30;;
5149;SDS011;2593;52.466;13.436;2022-10-31T06:36:47;38.23;;;16.60;;
5149;SDS011;2593;52.466;13.436;2022-10-31T06:39:13;39.33;;;17.10;;
5149;SDS011;2593;52.466;13.436;2022-10-31T06:41:39;42.40;;;18.60;;
5149;SDS011;2593;52.466;13.436;2022-10-31T06:44:06;38.30;;;16.37;;
5149;SDS011;2593;52.466;13.436;2022-10-31T06:46:32;38.47;;;18.57;;
5149;SDS011;2593;52.466;13.436;2022-10-31T06:48:58;26.40;;;15.17;;
5149;SDS011;2593;52.466;13.436;2022-10-31T06:51:23;32.33;;;15.37;;
5149;SDS011;2593;52.466;13.436;2022-10-31T06:53:49;27.93;;;14.13;;
5149;SDS011;2593;52.466;13.436;2022-10-31T06:56:14;32.47;;;15.03;;
5149;SDS011;2593;52.466;13.436;2022-10-31T06:58:40;34.27;;;15.17;;
5149;SDS011;2593;52.466;13.436;2022-10-31T07:01:06;27.57;;;15.03;;
5149;SDS011;2593;52.466;13.436;2022-10-31T07:03:31;26.17;;;15.13;;
5149;SDS011;2593;52.466;13.436;2022-10-31T07:05:57;29.20;;;14.97;;
5149;SDS011;2593;52.466;13.436;2022-10-31T07:08:23;30.43;;;16.53;;
5149;SDS011;2593;52.466;13.436;2022-10-31T07:10:53;29.60;;;15.70;;
5149;SDS011;2593;52.466;13.436;2022-10-31T07:13:21;32.10;;;14.77;;
5149;SDS011;2593;52.466;13.436;2022-10-31T07:15:50;34.93;;;15.67;;
5149;SDS011;2593;52.466;13.436;2022-10-31T07:18:17;30.33;;;15.90;;
5149;SDS011;2593;52.466;13.436;2022-10-31T07:20:42;29.63;;;16.33;;
5149;SDS011;2593;52.466;13.436;2022-10-31T07:23:11;25.03;;;14.00;;
5149;SDS011;2593;52.466;13.436;2022-10-31T07:25:38;27.23;;;14.70;;
5149;SDS011;2593;52.466;13.436;2022-10-31T07:28:05;26.13;;;15.37;;
5149;SDS011;2593;52.466;13.436;2022-10-31T07:30:30;27.20;;;16.13;;
5149;SDS011;2593;52.466;13.436;2022-10-31T07:32:56;38.60;;;17.27;;
5149;SDS011;2593;52.466;13.436;2022-10-31T07:35:28;34.23;;;15.33;;
5149;SDS011;2593;52.466;13.436;2022-10-31T07:37:54;37.93;;;15.90;;
5149;SDS011;2593;52.466;13.436;2022-10-31T07:40:20;37.90;;;17.50;;
5149;SDS011;2593;52.466;13.436;2022-10-31T07:42:47;31.07;;;15.67;;
5149;SDS011;2593;52.466;13.436;2022-10-31T07:45:15;31.57;;;15.80;;
5149;SDS011;2593;52.466;13.436;2022-10-31T07:47:44;34.23;;;15.70;;
5149;SDS011;2593;52.466;13.436;2022-10-31T07:50:15;34.10;;;16.27;;
5149;SDS011;2593;52.466;13.436;2022-10-31T07:52:42;44.27;;;16.83;;
5149;SDS011;2593;52.466;13.436;2022-10-31T07:55:07;35.03;;;18.20;;
5149;SDS011;2593;52.466;13.436;2022-10-31T07:57:33;35.17;;;17.90;;
5149;SDS011;2593;52.466;13.436;2022-10-31T07:59:59;31.33;;;15.20;;
5149;SDS011;2593;52.466;13.436;2022-10-31T08:02:25;40.40;;;17.87;;
5149;SDS011;2593;52.466;13.436;2022-10-31T08:04:51;31.03;;;15.63;;
5149;SDS011;2593;52.466;13.436;2022-10-31T08:07:16;29.57;;;15.97;;
5149;SDS011;2593;52.466;13.436;2022-10-31T08:09:42;31.57;;;15.53;;
5149;SDS011;2593;52.466;13.436;2022-10-31T08:12:08;26.33;;;15.37;;
5149;SDS011;2593;52.466;13.436;2022-10-31T08:14:33;36.87;;;15.03;;
5149;SDS011;2593;52.466;13.436;2022-10-31T08:16:59;27.63;;;14.20;;
5149;SDS011;2593;52.466;13.436;2022-10-31T08:19:25;33.53;;;16.47;;
5149;SDS011;2593;52.466;13.436;2022-10-31T08:21:51;38.20;;;15.37;;
5149;SDS011;2593;52.466;13.436;2022-10-31T08:24:17;35.30;;;17.27;;
5149;SDS011;2593;52.466;13.436;2022-10-31T08:26:43;43.07;;;18.70;;
5149;SDS011;2593;52.466;13.436;2022-10-31T08:29:08;30.27;;;16.67;;
5149;SDS011;2593;52.466;13.436;2022-10-31T08:31:34;29.73;;;17.57;;
5149;SDS011;2593;52.466;13.436;2022-10-31T08:34:00;34.43;;;18.07;;
5149;SDS011;2593;52.466;13.436;2022-10-31T08:36:26;34.87;;;19.20;;
5149;SDS011;2593;52.466;13.436;2022-10-31T08:38:53;38.47;;;19.70;;
5149;SDS011;2593;52.466;13.436;2022-10-31T08:41:19;47.50;;;19.00;;
5149;SDS011;2593;52.466;13.436;2022-10-31T08:43:45;47.40;;;20.07;;
5149;SDS011;2593;52.466;13.436;2022-10-31T08:46:11;53.20;;;20.37;;
5149;SDS011;2593;52.466;13.436;2022-10-31T08:48:36;33.63;;;19.17;;
5149;SDS011;2593;52.466;13.436;2022-10-31T08:51:02;34.97;;;18.07;;
5149;SDS011;2593;52.466;13.436;2022-10-31T08:53:28;36.97;;;18.17;;
5149;SDS011;2593;52.466;13.436;2022-10-31T08:55:55;37.67;;;17.20;;
5149;SDS011;2593;52.466;13.436;2022-10-31T08:58:21;32.87;;;16.77;;
5149;SDS011;2593;52.466;13.436;2022-10-31T09:00:49;32.60;;;16.70;;
5149;SDS011;2593;52.466;13.436;2022-10-31T09:03:17;46.53;;;18.53;;
5149;SDS011;2593;52.466;13.436;2022-10-31T09:05:45;54.63;;;20.00;;
5149;SDS011;2593;52.466;13.436;2022-10-31T09:08:11;40.60;;;20.37;;
5149;SDS011;2593;52.466;13.436;2022-10-31T09:10:37;43.93;;;19.33;;
5149;SDS011;2593;52.466;13.436;2022-10-31T09:13:05;40.40;;;18.10;;
5149;SDS011;2593;52.466;13.436;2022-10-31T09:15:34;35.20;;;18.57;;
5149;SDS011;2593;52.466;13.436;2022-10-31T09:18:01;40.13;;;19.53;;
5149;SDS011;2593;52.466;13.436;2022-10-31T09:20:27;33.83;;;19.53;;
5149;SDS011;2593;52.466;13.436;2022-10-31T09:22:57;36.53;;;17.73;;
5149;SDS011;2593;52.466;13.436;2022-10-31T09:25:26;36.80;;;17.07;;
5149;SDS011;2593;52.466;13.436;2022-10-31T09:27:59;42.73;;;20.33;;
5149;SDS011;2593;52.466;13.436;2022-10-31T09:30:26;37.37;;;19.70;;
5149;SDS011;2593;52.466;13.436;2022-10-31T09:32:54;44.47;;;16.20;;
5149;SDS011;2593;52.466;13.436;2022-10-31T09:35:21;40.53;;;19.30;;
5149;SDS011;2593;52.466;13.436;2022-10-31T09:37:47;33.27;;;16.87;;
5149;SDS011;2593;52.466;13.436;2022-10-31T09:51:35;36.65;;;15.85;;
5149;SDS011;2593;52.466;13.436;2022-10-31T09:54:10;24.77;;;13.50;;
5149;SDS011;2593;52.466;13.436;2022-10-31T09:56:36;43.35;;;16.98;;
5149;SDS011;2593;52.466;13.436;2022-10-31T09:59:04;30.02;;;16.10;;
5149;SDS011;2593;52.466;13.436;2022-10-31T10:01:47;41.28;;;18.40;;
5149;SDS011;2593;52.466;13.436;2022-10-31T10:07:19;34.87;;;18.80;;
5149;SDS011;2593;52.466;13.436;2022-10-31T10:09:46;48.87;;;16.97;;
5149;SDS011;2593;52.466;13.436;2022-10-31T10:12:16;38.80;;;20.50;;
5149;SDS011;2593;52.466;13.436;2022-10-31T10:15:04;38.87;;;18.00;;
5149;SDS011;2593;52.466;13.436;2022-10-31T10:17:53;38.57;;;19.80;;
5149;SDS011;2593;52.466;13.436;2022-10-31T10:26:05;35.80;;;19.03;;
5149;SDS011;2593;52.466;13.436;2022-10-31T10:28:41;38.33;;;21.23;;
5149;SDS011;2593;52.466;13.436;2022-10-31T10:31:32;40.93;;;20.30;;
5149;SDS011;2593;52.466;13.436;2022-10-31T10:34:01;40.53;;;21.73;;
5149;SDS011;2593;52.466;13.436;2022-10-31T10:36:48;38.83;;;21.67;;
5149;SDS011;2593;52.466;13.436;2022-10-31T10:42:12;49.20;;;23.57;;
5149;SDS011;2593;52.466;13.436;2022-10-31T10:44:58;46.70;;;22.30;;
5149;SDS011;2593;52.466;13.436;2022-10-31T10:47:44;47.37;;;22.00;;
5149;SDS011;2593;52.466;13.436;2022-10-31T10:50:20;61.87;;;21.47;;
5149;SDS011;2593;52.466;13.436;2022-10-31T10:53:02;42.77;;;21.93;;
5149;SDS011;2593;52.466;13.436;2022-10-31T10:58:52;33.33;;;19.50;;
5149;SDS011;2593;52.466;13.436;2022-10-31T11:01:19;43.63;;;22.20;;
5149;SDS011;2593;52.466;13.436;2022-10-31T11:03:47;45.00;;;20.43;;
5149;SDS011;2593;52.466;13.436;2022-10-31T11:06:19;53.97;;;21.43;;
5149;SDS011;2593;52.466;13.436;2022-10-31T11:08:50;36.30;;;21.20;;
5149;SDS011;2593;52.466;13.436;2022-10-31T11:13:43;49.57;;;23.20;;
5149;SDS011;2593;52.466;13.436;2022-10-31T11:16:13;58.80;;;23.23;;
5149;SDS011;2593;52.466;13.436;2022-10-31T11:18:51;53.67;;;23.37;;
5149;SDS011;2593;52.466;13.436;2022-10-31T11:21:21;45.53;;;23.90;;
5149;SDS011;2593;52.466;13.436;2022-10-31T11:26:34;41.80;;;23.80;;
5149;SDS011;2593;52.466;13.436;2022-10-31T11:29:00;43.30;;;23.80;;
5149;SDS011;2593;52.466;13.436;2022-10-31T11:31:28;45.90;;;24.73;;
5149;SDS011;2593;52.466;13.436;2022-10-31T11:34:03;46.97;;;23.30;;
5149;SDS011;2593;52.466;13.436;2022-10-31T11:36:42;40.40;;;21.03;;
5149;SDS011;2593;52.466;13.436;2022-10-31T11:39:16;51.23;;;23.83;;
5149;SDS011;2593;52.466;13.436;2022-10-31T11:41:47;48.10;;;23.33;;
5149;SDS011;2593;52.466;13.436;2022-10-31T11:44:19;59.83;;;23.77;;
5149;SDS011;2593;52.466;13.436;2022-10-31T11:49:18;65.37;;;24.80;;
5149;SDS011;2593;52.466;13.436;2022-10-31T11:52:14;43.63;;;23.80;;
5149;SDS011;2593;52.466;13.436;2022-10-31T11:57:26;54.20;;;23.93;;
5149;SDS011;2593;52.466;13.436;2022-10-31T12:02:47;52.90;;;27.40;;
5149;SDS011;2593;52.466;13.436;2022-10-31T12:07:57;52.53;;;23.80;;
5149;SDS011;2593;52.466;13.436;2022-10-31T12:10:24;61.10;;;28.63;;
5149;SDS011;2593;52.466;13.436;2022-10-31T12:13:02;58.23;;;25.37;;
5149;SDS011;2593;52.466;13.436;2022-10-31T12:15:50;57.57;;;24.80;;
5149;SDS011;2593;52.466;13.436;2022-10-31T12:18:29;45.37;;;25.60;;
5149;SDS011;2593;52.466;13.436;2022-10-31T12:21:29;56.30;;;26.97;;
5149;SDS011;2593;52.466;13.436;2022-10-31T12:30:19;67.67;;;33.40;;
5149;SDS011;2593;52.466;13.436;2022-10-31T12:38:30;61.27;;;30.20;;
5149;SDS011;2593;52.466;13.436;2022-10-31T12:41:44;48.37;;;23.70;;
5149;SDS011;2593;52.466;13.436;2022-10-31T12:47:18;61.63;;;25.00;;
5149;SDS011;2593;52.466;13.436;2022-10-31T12:52:52;40.43;;;24.37;;
5149;SDS011;2593;52.466;13.436;2022-10-31T12:55:53;58.43;;;24.67;;
5149;SDS011;2593;52.466;13.436;2022-10-31T12:58:49;66.20;;;25.90;;
5149;SDS011;2593;52.466;13.436;2022-10-31T13:01:22;57.70;;;27.27;;
5149;SDS011;2593;52.466;13.436;2022-10-31T13:04:03;44.67;;;25.67;;
5149;SDS011;2593;52.466;13.436;2022-10-31T13:06:40;48.23;;;24.90;;
5149;SDS011;2593;52.466;13.436;2022-10-31T13:09:13;58.60;;;28.77;;
5149;SDS011;2593;52.466;13.436;2022-10-31T13:11:47;55.70;;;26.80;;
5149;SDS011;2593;52.466;13.436;2022-10-31T13:14:26;53.10;;;26.80;;
5149;SDS011;2593;52.466;13.436;2022-10-31T13:17:02;78.93;;;31.47;;
5149;SDS011;2593;52.466;13.436;2022-10-31T13:19:36;73.77;;;28.73;;
5149;SDS011;2593;52.466;13.436;2022-10-31T13:22:08;93.57;;;32.20;;
5149;SDS011;2593;52.466;13.436;2022-10-31T13:24:42;75.53;;;30.00;;
5149;SDS011;2593;52.466;13.436;2022-10-31T13:27:22;72.13;;;32.10;;
5149;SDS011;2593;52.466;13.436;2022-10-31T13:32:41;59.63;;;27.67;;
5149;SDS011;2593;52.466;13.436;2022-10-31T13:35:18;50.30;;;25.30;;
5149;SDS011;2593;52.466;13.436;2022-10-31T13:40:51;73.60;;;34.17;;
5149;SDS011;2593;52.466;13.436;2022-10-31T13:43:40;78.70;;;31.10;;
5149;SDS011;2593;52.466;13.436;2022-10-31T13:46:25;53.97;;;26.93;;
5149;SDS011;2593;52.466;13.436;2022-10-31T13:49:02;55.30;;;30.50;;
5149;SDS011;2593;52.466;13.436;2022-10-31T13:51:32;58.63;;;28.33;;
5149;SDS011;2593;52.466;13.436;2022-10-31T13:56:48;59.63;;;25.93;;
5149;SDS011;2593;52.466;13.436;2022-10-31T13:59:25;60.20;;;29.87;;
5149;SDS011;2593;52.466;13.436;2022-10-31T14:01:56;60.00;;;29.80;;
5149;SDS011;2593;52.466;13.436;2022-10-31T14:04:23;48.77;;;25.77;;
5149;SDS011;2593;52.466;13.436;2022-10-31T14:06:56;55.53;;;30.27;;
5149;SDS011;2593;52.466;13.436;2022-10-31T14:09:25;59.23;;;29.90;;
5149;SDS011;2593;52.466;13.436;2022-10-31T14:11:57;60.30;;;28.90;;
5149;SDS011;2593;52.466;13.436;2022-10-31T14:14:29;63.93;;;31.30;;
5149;SDS011;2593;52.466;13.436;2022-10-31T14:16:58;61.73;;;29.50;;
5149;SDS011;2593;52.466;13.436;2022-10-31T14:19:24;66.63;;;30.17;;
5149;SDS011;2593;52.466;13.436;2022-10-31T14:21:51;66.83;;;30.50;;
5149;SDS011;2593;52.466;13.436;2022-10-31T14:24:30;62.20;;;28.70;;
5149;SDS011;2593;52.466;13.436;2022-10-31T14:29:29;58.03;;;28.93;;
5149;SDS011;2593;52.466;13.436;2022-10-31T14:34:42;53.97;;;30.40;;
5149;SDS011;2593;52.466;13.436;2022-10-31T14:50:49;71.10;;;32.40;;
5149;SDS011;2593;52.466;13.436;2022-10-31T14:53:30;62.77;;;29.70;;
5149;SDS011;2593;52.466;13.436;2022-10-31T14:55:58;60.37;;;30.40;;
5149;SDS011;2593;52.466;13.436;2022-10-31T15:06:40;87.73;;;40.90;;
5149;SDS011;2593;52.466;13.436;2022-10-31T15:09:21;73.73;;;34.50;;
5149;SDS011;2593;52.466;13.436;2022-10-31T15:11:48;78.17;;;38.40;;
5149;SDS011;2593;52.466;13.436;2022-10-31T15:14:21;69.57;;;32.37;;
5149;SDS011;2593;52.466;13.436;2022-10-31T15:16:49;75.23;;;37.30;;
5149;SDS011;2593;52.466;13.436;2022-10-31T15:19:16;81.20;;;42.27;;
5149;SDS011;2593;52.466;13.436;2022-10-31T15:21:46;85.23;;;43.53;;
5149;SDS011;2593;52.466;13.436;2022-10-31T15:24:14;80.17;;;39.97;;
5149;SDS011;2593;52.466;13.436;2022-10-31T15:26:44;85.07;;;37.20;;
5149;SDS011;2593;52.466;13.436;2022-10-31T15:29:16;73.33;;;37.17;;
5149;SDS011;2593;52.466;13.436;2022-10-31T15:31:54;67.00;;;32.90;;
5149;SDS011;2593;52.466;13.436;2022-10-31T15:37:00;73.80;;;37.43;;
5149;SDS011;2593;52.466;13.436;2022-10-31T15:39:26;72.97;;;35.90;;
5149;SDS011;2593;52.466;13.436;2022-10-31T15:41:53;85.63;;;38.10;;
5149;SDS011;2593;52.466;13.436;2022-10-31T15:47:01;94.07;;;38.03;;
5149;SDS011;2593;52.466;13.436;2022-10-31T15:49:42;72.67;;;38.20;;
5149;SDS011;2593;52.466;13.436;2022-10-31T15:55:00;75.33;;;37.93;;
5149;SDS011;2593;52.466;13.436;2022-10-31T15:57:43;79.77;;;40.57;;
5149;SDS011;2593;52.466;13.436;2022-10-31T16:02:48;82.27;;;40.60;;
5149;SDS011;2593;52.466;13.436;2022-10-31T16:05:14;91.33;;;42.30;;
5149;SDS011;2593;52.466;13.436;2022-10-31T16:07:50;92.47;;;44.33;;
5149;SDS011;2593;52.466;13.436;2022-10-31T16:10:26;74.50;;;41.60;;
5149;SDS011;2593;52.466;13.436;2022-10-31T16:12:52;90.07;;;42.40;;
5149;SDS011;2593;52.466;13.436;2022-10-31T16:15:19;81.03;;;40.90;;
5149;SDS011;2593;52.466;13.436;2022-10-31T16:17:49;95.03;;;43.10;;
5149;SDS011;2593;52.466;13.436;2022-10-31T16:20:34;84.83;;;41.13;;
5149;SDS011;2593;52.466;13.436;2022-10-31T16:23:01;113.53;;;45.80;;
5149;SDS011;2593;52.466;13.436;2022-10-31T16:25:28;102.97;;;46.27;;
5149;SDS011;2593;52.466;13.436;2022-10-31T16:28:02;96.13;;;44.37;;
5149;SDS011;2593;52.466;13.436;2022-10-31T16:30:35;104.93;;;45.30;;
5149;SDS011;2593;52.466;13.436;2022-10-31T16:33:03;108.80;;;47.70;;
5149;SDS011;2593;52.466;13.436;2022-10-31T16:35:44;101.73;;;46.77;;
5149;SDS011;2593;52.466;13.436;2022-10-31T16:38:10;95.93;;;45.83;;
5149;SDS011;2593;52.466;13.436;2022-10-31T16:40:37;86.80;;;43.57;;
5149;SDS011;2593;52.466;13.436;2022-10-31T16:43:03;93.23;;;44.87;;
5149;SDS011;2593;52.466;13.436;2022-10-31T16:45:29;106.33;;;46.50;;
5149;SDS011;2593;52.466;13.436;2022-10-31T16:48:16;99.73;;;45.40;;
5149;SDS011;2593;52.466;13.436;2022-10-31T16:50:45;106.73;;;45.23;;
5149;SDS011;2593;52.466;13.436;2022-10-31T16:53:12;97.33;;;43.37;;
5149;SDS011;2593;52.466;13.436;2022-10-31T16:55:41;103.80;;;45.40;;
5149;SDS011;2593;52.466;13.436;2022-10-31T16:58:28;99.97;;;47.60;;
5149;SDS011;2593;52.466;13.436;2022-10-31T17:00:58;104.17;;;47.20;;
5149;SDS011;2593;52.466;13.436;2022-10-31T17:03:25;96.37;;;45.57;;
5149;SDS011;2593;52.466;13.436;2022-10-31T17:05:51;86.77;;;45.73;;